createdAt,value
2023-05-05T00:01:15.870Z,96630.97
2023-05-05T00:03:42.520Z,96622.88
2023-05-05T00:06:09.064Z,96617.78
2023-05-05T00:08:35.454Z,96618.59
2023-05-05T00:11:01.794Z,96619.53
2023-05-05T00:13:28.110Z,96620.63
2023-05-05T00:15:54.517Z,96624.31
2023-05-05T00:18:21.418Z,96622.38
2023-05-05T00:20:48.012Z,96616.13
2023-05-05T00:23:17.173Z,96616.78
2023-05-05T00:25:43.600Z,96619.34
2023-05-05T00:28:10.257Z,96610.91
2023-05-05T00:30:37.300Z,96617.63
2023-05-05T00:33:04.182Z,96617.06
2023-05-05T00:35:30.812Z,96621.00
2023-05-05T00:37:57.236Z,96607.25
2023-05-05T00:40:25.009Z,96623.00
2023-05-05T00:42:51.479Z,96620.53
2023-05-05T00:45:19.209Z,96619.91
2023-05-05T00:47:51.333Z,96617.25
2023-05-05T00:50:23.759Z,96616.53
2023-05-05T00:52:52.744Z,96622.38
2023-05-05T00:55:19.236Z,96622.50
2023-05-05T00:57:45.914Z,96618.13
2023-05-05T01:00:12.981Z,96619.13
2023-05-05T01:02:40.362Z,96618.50
2023-05-05T01:05:10.759Z,96615.19
2023-05-05T01:07:43.713Z,96620.31
2023-05-05T01:10:20.364Z,96607.75
2023-05-05T01:13:05.250Z,96617.56
2023-05-05T01:15:34.693Z,96616.28
2023-05-05T01:18:18.082Z,96622.41
2023-05-05T01:21:05.297Z,96616.72
2023-05-05T01:24:05.344Z,96615.16
2023-05-05T01:26:42.844Z,96615.84
2023-05-05T01:29:20.195Z,96627.69
2023-05-05T01:31:57.040Z,96620.88
2023-05-05T01:34:27.514Z,96626.50
2023-05-05T01:37:05.552Z,96635.09
2023-05-05T01:39:34.825Z,96627.81
2023-05-05T01:42:06.670Z,96638.06
2023-05-05T01:44:34.860Z,96629.84
2023-05-05T01:47:02.467Z,96626.88
2023-05-05T01:49:30.113Z,96627.28
2023-05-05T01:51:57.621Z,96629.53
2023-05-05T01:54:25.739Z,96623.88
2023-05-05T01:56:54.149Z,96623.16
2023-05-05T01:59:21.611Z,96617.47
2023-05-05T02:01:50.361Z,96621.28
2023-05-05T02:04:18.465Z,96626.59
2023-05-05T02:06:47.505Z,96620.94
2023-05-05T02:09:15.111Z,96615.94
2023-05-05T02:11:41.684Z,96613.28
2023-05-05T02:14:10.831Z,96617.22
2023-05-05T02:16:38.607Z,96621.19
2023-05-05T02:19:05.494Z,96620.84
2023-05-05T02:21:33.636Z,96616.84
2023-05-05T02:24:00.981Z,96620.19
2023-05-05T02:26:29.983Z,96613.72
2023-05-05T02:29:27.493Z,96611.34
2023-05-05T02:31:58.978Z,96618.03
2023-05-05T02:34:27.179Z,96612.72
2023-05-05T02:37:00.168Z,96608.63
2023-05-05T02:39:47.346Z,96613.66
2023-05-05T02:42:20.706Z,96611.53
2023-05-05T02:44:49.220Z,96620.50
2023-05-05T02:47:15.750Z,96616.56
2023-05-05T02:49:42.860Z,96613.38
2023-05-05T02:52:09.265Z,96613.28
2023-05-05T02:54:35.889Z,96622.78
2023-05-05T02:57:02.923Z,96623.34
2023-05-05T02:59:53.011Z,96620.09
2023-05-05T03:02:35.316Z,96624.69
2023-05-05T03:05:13.220Z,96620.16
2023-05-05T03:07:48.793Z,96626.47
2023-05-05T03:10:20.051Z,96615.56
2023-05-05T03:12:52.359Z,96616.41
2023-05-05T03:15:22.207Z,96612.78
2023-05-05T03:17:50.382Z,96614.06
2023-05-05T03:20:17.339Z,96625.19
2023-05-05T03:22:44.408Z,96612.44
2023-05-05T03:25:10.795Z,96613.16
2023-05-05T03:27:37.157Z,96622.06
2023-05-05T03:30:03.812Z,96618.97
2023-05-05T03:32:31.081Z,96622.91
2023-05-05T03:34:57.474Z,96619.91
2023-05-05T03:37:23.918Z,96614.91
2023-05-05T03:39:50.252Z,96614.06
2023-05-05T03:42:16.925Z,96610.50
2023-05-05T03:44:43.685Z,96616.13
2023-05-05T03:47:10.092Z,96611.03
2023-05-05T03:49:36.527Z,96612.78
2023-05-05T03:52:02.852Z,96616.78
2023-05-05T03:54:29.261Z,96619.94
2023-05-05T03:56:56.207Z,96618.16
2023-05-05T03:59:22.568Z,96621.19
2023-05-05T04:01:49.886Z,96624.03
2023-05-05T04:04:16.550Z,96632.72
2023-05-05T04:06:42.923Z,96640.94
2023-05-05T04:09:09.271Z,96633.19
2023-05-05T04:11:35.584Z,96634.03
2023-05-05T04:14:01.936Z,96634.75
2023-05-05T04:16:28.376Z,96636.19
2023-05-05T04:18:55.283Z,96634.69
2023-05-05T04:21:21.672Z,96629.91
2023-05-05T04:23:48.184Z,96639.16
2023-05-05T04:26:14.501Z,96633.53
2023-05-05T04:28:41.889Z,96632.69
2023-05-05T04:31:08.251Z,96632.84
2023-05-05T04:33:34.600Z,96636.50
2023-05-05T04:36:00.960Z,96637.16
2023-05-05T04:38:27.424Z,96634.81
2023-05-05T04:40:53.839Z,96640.63
2023-05-05T04:43:20.806Z,96644.09
2023-05-05T04:45:54.399Z,96636.50
2023-05-05T04:48:20.925Z,96645.41
2023-05-05T04:50:47.313Z,96640.13
2023-05-05T04:53:13.661Z,96639.16
2023-05-05T04:55:40.011Z,96638.09
2023-05-05T04:58:06.427Z,96642.41
2023-05-05T05:00:32.869Z,96643.41
2023-05-05T05:02:59.285Z,96644.72
2023-05-05T05:05:25.667Z,96637.25
2023-05-05T05:07:51.989Z,96635.59
2023-05-05T05:10:18.459Z,96647.72
2023-05-05T05:12:47.660Z,96643.69
2023-05-05T05:15:14.098Z,96643.53
2023-05-05T05:17:40.511Z,96646.97
2023-05-05T05:20:08.939Z,96646.56
2023-05-05T05:22:38.142Z,96658.38
2023-05-05T05:25:04.836Z,96653.41
2023-05-05T05:27:31.181Z,96653.03
2023-05-05T05:29:57.528Z,96648.06
2023-05-05T05:32:23.851Z,96645.94
2023-05-05T05:34:50.187Z,96656.94
2023-05-05T05:37:16.536Z,96654.31
2023-05-05T05:39:43.700Z,96660.97
2023-05-05T05:42:10.188Z,96654.56
2023-05-05T05:44:36.533Z,96662.19
2023-05-05T05:47:02.873Z,96659.75
2023-05-05T05:49:29.204Z,96668.59
2023-05-05T05:51:55.552Z,96666.16
2023-05-05T05:54:21.906Z,96668.75
2023-05-05T05:56:48.240Z,96668.53
2023-05-05T05:59:14.557Z,96671.31
2023-05-05T06:01:41.158Z,96675.56
2023-05-05T06:04:07.720Z,96669.56
2023-05-05T06:06:34.258Z,96671.06
2023-05-05T06:09:00.894Z,96669.69
2023-05-05T06:11:27.251Z,96665.53
2023-05-05T06:13:53.577Z,96668.28
2023-05-05T06:16:19.925Z,96665.59
2023-05-05T06:18:46.844Z,96665.59
2023-05-05T06:21:13.415Z,96670.78
2023-05-05T06:23:39.815Z,96677.50
2023-05-05T06:26:06.146Z,96676.78
2023-05-05T06:28:32.549Z,96671.31
2023-05-05T06:30:58.890Z,96669.22
2023-05-05T06:33:25.226Z,96668.69
2023-05-05T06:35:52.222Z,96670.75
2023-05-05T06:38:18.559Z,96672.31
2023-05-05T06:40:47.441Z,96669.84
2023-05-05T06:43:13.760Z,96675.06
2023-05-05T06:45:40.776Z,96674.69
2023-05-05T06:48:08.427Z,96676.03
2023-05-05T06:50:34.824Z,96678.47
2023-05-05T06:53:01.487Z,96686.25
2023-05-05T06:55:27.870Z,96683.91
2023-05-05T06:57:54.207Z,96677.31
2023-05-05T07:00:22.016Z,96677.41
2023-05-05T07:02:48.393Z,96670.53
2023-05-05T07:05:14.794Z,96672.09
2023-05-05T07:07:53.536Z,96685.69
2023-05-05T07:10:21.360Z,96677.16
2023-05-05T07:12:48.215Z,96679.75
2023-05-05T07:15:26.834Z,96681.38
2023-05-05T07:17:54.940Z,96678.50
2023-05-05T07:20:21.328Z,96673.59
2023-05-05T07:22:47.647Z,96665.47
2023-05-05T07:25:13.967Z,96664.63
2023-05-05T07:27:40.653Z,96661.78
2023-05-05T07:30:12.298Z,96659.56
2023-05-05T07:32:40.562Z,96667.94
2023-05-05T07:35:07.172Z,96666.28
2023-05-05T07:37:33.579Z,96666.28
2023-05-05T07:39:59.913Z,96662.78
2023-05-05T07:42:26.240Z,96665.91
2023-05-05T07:44:52.848Z,96666.28
2023-05-05T07:47:19.172Z,96668.47
2023-05-05T07:49:45.672Z,96660.97
2023-05-05T07:52:12.170Z,96663.16
2023-05-05T07:54:38.523Z,96655.41
2023-05-05T07:57:04.925Z,96660.53
2023-05-05T07:59:31.340Z,96655.97
2023-05-05T08:01:57.648Z,96656.03
2023-05-05T08:04:24.046Z,96650.25
2023-05-05T08:06:50.428Z,96653.88
2023-05-05T08:09:16.762Z,96652.06
2023-05-05T08:11:43.068Z,96648.16
2023-05-05T08:14:09.452Z,96647.53
2023-05-05T08:16:36.200Z,96638.19
2023-05-05T08:19:03.006Z,96643.34
2023-05-05T08:21:29.401Z,96641.59
2023-05-05T08:23:55.732Z,96632.47
2023-05-05T08:26:22.720Z,96635.88
2023-05-05T08:28:49.137Z,96629.63
2023-05-05T08:31:15.865Z,96631.94
2023-05-05T08:33:42.226Z,96635.50
2023-05-05T08:36:08.875Z,96638.16
2023-05-05T08:38:36.206Z,96630.50
2023-05-05T08:41:02.556Z,96623.53
2023-05-05T08:43:28.873Z,96623.66
2023-05-05T08:45:56.573Z,96624.66
2023-05-05T08:48:27.562Z,96625.47
2023-05-05T08:51:00.852Z,96617.13
2023-05-05T08:54:11.574Z,96623.53
2023-05-05T08:56:42.483Z,96606.38
2023-05-05T08:59:11.776Z,96608.72
2023-05-05T09:01:38.249Z,96603.59
2023-05-05T09:04:04.927Z,96617.28
2023-05-05T09:06:33.593Z,96610.66
2023-05-05T09:09:00.868Z,96608.72
2023-05-05T09:11:27.959Z,96603.38
2023-05-05T09:13:55.422Z,96605.03
2023-05-05T09:16:22.517Z,96601.19
2023-05-05T09:18:48.865Z,96606.97
2023-05-05T09:21:25.884Z,96608.25
2023-05-05T09:24:09.241Z,96596.72
2023-05-05T09:26:38.343Z,96595.94
2023-05-05T09:29:05.466Z,96598.81
2023-05-05T09:31:32.656Z,96591.63
2023-05-05T09:34:01.003Z,96593.47
2023-05-05T09:36:47.908Z,96585.84
2023-05-05T09:39:19.224Z,96578.97
2023-05-05T09:41:46.697Z,96579.50
2023-05-05T09:44:15.973Z,96576.59
2023-05-05T09:46:52.684Z,96574.19
2023-05-05T09:49:23.366Z,96574.22
2023-05-05T09:51:49.793Z,96578.31
2023-05-05T09:54:43.160Z,96576.53
2023-05-05T09:57:25.452Z,96570.75
2023-05-05T09:59:59.711Z,96572.19
2023-05-05T10:02:38.399Z,96563.16
2023-05-05T10:05:07.511Z,96555.78
2023-05-05T10:07:35.368Z,96547.94
2023-05-05T10:10:03.822Z,96544.81
2023-05-05T10:12:31.624Z,96537.25
2023-05-05T10:15:02.409Z,96545.66
2023-05-05T10:17:32.696Z,96552.84
2023-05-05T10:20:01.035Z,96551.81
2023-05-05T10:22:32.712Z,96544.81
2023-05-05T10:25:09.304Z,96535.34
2023-05-05T10:27:43.582Z,96522.53
2023-05-05T10:30:20.075Z,96521.13
2023-05-05T10:33:03.576Z,96515.94
2023-05-05T10:35:40.025Z,96521.50
2023-05-05T10:38:09.721Z,96514.13
2023-05-05T10:40:36.107Z,96512.28
2023-05-05T10:43:02.532Z,96508.72
2023-05-05T10:45:29.121Z,96517.13
2023-05-05T10:47:59.040Z,96508.28
2023-05-05T10:50:38.418Z,96510.84
2023-05-05T10:53:21.894Z,96503.84
2023-05-05T10:56:12.115Z,96492.94
2023-05-05T10:58:58.195Z,96487.97
2023-05-05T11:01:31.913Z,96487.28
2023-05-05T11:04:18.161Z,96479.97
2023-05-05T11:07:13.415Z,96480.81
2023-05-05T11:10:01.698Z,96476.91
2023-05-05T11:12:29.206Z,96475.41
2023-05-05T11:15:23.378Z,96470.91
2023-05-05T11:17:49.992Z,96467.38
2023-05-05T11:20:16.784Z,96462.94
2023-05-05T11:23:05.346Z,96460.19
2023-05-05T11:25:34.811Z,96452.72
2023-05-05T11:28:14.338Z,96454.38
2023-05-05T11:30:56.407Z,96449.88
2023-05-05T11:33:30.776Z,96447.94
2023-05-05T11:35:59.142Z,96447.44
2023-05-05T11:38:40.403Z,96444.47
2023-05-05T11:41:35.564Z,96440.28
2023-05-05T11:44:18.479Z,96449.56
2023-05-05T11:46:50.545Z,96438.53
2023-05-05T11:49:39.364Z,96434.88
2023-05-05T11:52:07.848Z,96438.88
2023-05-05T11:54:47.444Z,96440.91
2023-05-05T11:57:15.107Z,96435.78
2023-05-05T12:00:01.097Z,96444.91
2023-05-05T12:02:29.408Z,96437.25
2023-05-05T12:04:57.030Z,96437.72
2023-05-05T12:07:27.016Z,96439.13
2023-05-05T12:09:53.712Z,96431.59
2023-05-05T12:12:20.751Z,96432.75
2023-05-05T12:14:52.568Z,96438.78
2023-05-05T12:17:23.255Z,96429.31
2023-05-05T12:19:51.947Z,96426.78
2023-05-05T12:22:19.777Z,96420.41
2023-05-05T12:24:55.045Z,96417.72
2023-05-05T12:27:21.750Z,96413.28
2023-05-05T12:29:48.175Z,96417.97
2023-05-05T12:32:24.692Z,96403.06
2023-05-05T12:34:54.217Z,96409.00
2023-05-05T12:37:22.129Z,96407.69
2023-05-05T12:39:49.553Z,96401.09
2023-05-05T12:42:16.935Z,96396.78
2023-05-05T12:44:46.677Z,96391.09
2023-05-05T12:47:14.160Z,96384.59
2023-05-05T12:49:51.180Z,96381.97
2023-05-05T12:52:18.304Z,96375.72
2023-05-05T12:54:59.052Z,96375.00
2023-05-05T12:57:26.039Z,96363.56
2023-05-05T12:59:53.614Z,96353.56
2023-05-05T13:02:21.097Z,96352.94
2023-05-05T13:04:54.399Z,96343.38
2023-05-05T13:07:21.888Z,96350.59
2023-05-05T13:09:49.828Z,96338.22
2023-05-05T13:12:19.683Z,96339.41
2023-05-05T13:14:46.645Z,96325.06
2023-05-05T13:17:14.007Z,96318.13
2023-05-05T13:19:46.201Z,96315.22
2023-05-05T13:22:13.476Z,96308.75
2023-05-05T13:24:50.952Z,96299.63
2023-05-05T13:27:19.330Z,96301.56
2023-05-05T13:29:45.944Z,96291.75
2023-05-05T13:32:12.344Z,96290.00
2023-05-05T13:34:39.089Z,96286.41
2023-05-05T13:37:05.918Z,96299.69
2023-05-05T13:39:32.270Z,96299.22
2023-05-05T13:41:58.583Z,96307.41
2023-05-05T13:44:24.937Z,96305.00
2023-05-05T13:46:51.334Z,96306.03
2023-05-05T13:49:17.941Z,96307.94
2023-05-05T13:51:45.067Z,96291.63
2023-05-05T13:54:11.397Z,96282.66
2023-05-05T13:56:38.051Z,96291.19
2023-05-05T13:59:04.424Z,96290.44
2023-05-05T14:01:31.044Z,96292.16
2023-05-05T14:03:57.985Z,96287.97
2023-05-05T14:06:24.824Z,96304.03
2023-05-05T14:08:51.585Z,96289.63
2023-05-05T14:11:18.168Z,96294.06
2023-05-05T14:13:46.332Z,96273.63
2023-05-05T14:16:13.161Z,96270.88
2023-05-05T14:18:39.533Z,96262.59
2023-05-05T14:21:05.894Z,96258.66
2023-05-05T14:23:32.501Z,96255.69
2023-05-05T14:25:58.828Z,96252.41
2023-05-05T14:28:25.236Z,96250.91
2023-05-05T14:30:52.002Z,96248.31
2023-05-05T14:33:18.342Z,96265.47
2023-05-05T14:35:44.654Z,96269.25
2023-05-05T14:38:11.023Z,96274.09
2023-05-05T14:40:37.373Z,96276.69
2023-05-05T14:43:03.744Z,96276.97
2023-05-05T14:45:31.088Z,96277.56
2023-05-05T14:47:57.417Z,96269.84
2023-05-05T14:50:23.804Z,96270.03
2023-05-05T14:52:50.319Z,96274.66
2023-05-05T14:55:16.818Z,96282.09
2023-05-05T14:57:43.217Z,96287.81
2023-05-05T15:00:11.153Z,96287.66
2023-05-05T15:02:37.686Z,96285.88
2023-05-05T15:05:05.069Z,96283.09
2023-05-05T15:07:31.481Z,96291.09
2023-05-05T15:09:57.831Z,96298.72
2023-05-05T15:12:24.232Z,96295.38
2023-05-05T15:14:50.608Z,96282.94
2023-05-05T15:17:17.020Z,96292.00
2023-05-05T15:19:43.401Z,96306.00
2023-05-05T15:22:09.780Z,96326.44
2023-05-05T15:24:37.081Z,96345.72
2023-05-05T15:27:03.619Z,96415.59
2023-05-05T15:29:30.006Z,96424.50
2023-05-05T15:31:56.380Z,96409.53
2023-05-05T15:34:22.711Z,96367.28
2023-05-05T15:39:15.412Z,96417.22
2023-05-05T15:41:41.757Z,96444.50
2023-05-05T15:44:08.533Z,96460.66
2023-05-05T15:46:34.922Z,96442.41
2023-05-05T15:49:01.364Z,96448.34
2023-05-05T15:51:27.705Z,96458.28
2023-05-05T15:53:54.097Z,96449.41
2023-05-05T15:56:20.429Z,96435.72
2023-05-05T15:58:46.738Z,96443.44
2023-05-05T16:01:13.077Z,96437.38
2023-05-05T16:03:39.456Z,96409.91
2023-05-05T16:06:06.177Z,96400.78
2023-05-05T16:08:32.556Z,96415.72
2023-05-05T16:10:58.888Z,96443.31
2023-05-05T16:13:25.221Z,96443.38
2023-05-05T16:15:51.537Z,96442.53
2023-05-05T16:18:17.945Z,96441.16
2023-05-05T16:20:44.290Z,96441.97
2023-05-05T16:23:12.033Z,96448.84
2023-05-05T16:25:38.361Z,96461.75
2023-05-05T16:28:04.793Z,96471.69
2023-05-05T16:30:31.119Z,96469.47
2023-05-05T16:32:57.487Z,96463.44
2023-05-05T16:35:23.869Z,96471.69
2023-05-05T16:37:50.205Z,96473.09
2023-05-05T16:40:16.523Z,96468.56
2023-05-05T16:42:44.425Z,96480.84
2023-05-05T16:45:11.540Z,96491.38
2023-05-05T16:47:38.163Z,96478.47
2023-05-05T16:50:05.225Z,96473.72
2023-05-05T16:52:31.541Z,96474.25
2023-05-05T16:54:58.043Z,96480.09
2023-05-05T16:57:24.441Z,96485.44
2023-05-05T16:59:50.887Z,96471.19
2023-05-05T17:02:17.240Z,96475.16
2023-05-05T17:04:43.613Z,96479.06
2023-05-05T17:07:09.952Z,96482.69
2023-05-05T17:09:36.270Z,96471.13
2023-05-05T17:12:04.220Z,96481.53
2023-05-05T17:14:31.050Z,96483.03
2023-05-05T17:16:57.854Z,96478.47
2023-05-05T17:19:24.304Z,96483.31
2023-05-05T17:21:50.713Z,96479.06
2023-05-05T17:24:17.035Z,96474.44
2023-05-05T17:26:43.418Z,96484.56
2023-05-05T17:29:11.544Z,96496.59
2023-05-05T17:31:39.205Z,96497.94
2023-05-05T17:34:05.651Z,96507.50
2023-05-05T17:36:32.058Z,96522.22
2023-05-05T17:38:58.437Z,96524.16
2023-05-05T17:41:25.558Z,96532.94
2023-05-05T17:43:51.968Z,96538.25
2023-05-05T17:46:18.391Z,96530.66
2023-05-05T17:48:45.111Z,96528.56
2023-05-05T17:51:11.525Z,96540.28
2023-05-05T17:53:38.396Z,96546.69
2023-05-05T17:56:06.645Z,96550.16
2023-05-05T17:58:34.982Z,96543.41
2023-05-05T18:01:01.645Z,96548.59
2023-05-05T18:03:28.258Z,96553.53
2023-05-05T18:05:54.770Z,96550.31
2023-05-05T18:08:21.128Z,96550.81
2023-05-05T18:10:47.556Z,96555.13
2023-05-05T18:13:13.943Z,96551.84
2023-05-05T18:15:40.372Z,96547.63
2023-05-05T18:18:07.033Z,96541.25
2023-05-05T18:20:33.422Z,96537.97
2023-05-05T18:22:59.757Z,96537.44
2023-05-05T18:25:26.138Z,96543.84
2023-05-05T18:27:52.502Z,96550.34
2023-05-05T18:30:19.140Z,96558.53
2023-05-05T18:32:45.524Z,96559.88
2023-05-05T18:35:12.594Z,96560.28
2023-05-05T18:37:39.394Z,96566.03
2023-05-05T18:40:06.959Z,96559.22
2023-05-05T18:42:33.339Z,96566.94
2023-05-05T18:44:59.710Z,96568.16
2023-05-05T18:47:26.289Z,96561.34
2023-05-05T18:49:52.697Z,96572.25
2023-05-05T18:52:19.057Z,96571.22
2023-05-05T18:54:45.452Z,96571.16
2023-05-05T18:57:11.776Z,96576.47
2023-05-05T18:59:38.090Z,96573.56
2023-05-05T19:02:04.470Z,96571.94
2023-05-05T19:04:32.128Z,96585.59
2023-05-05T19:06:59.872Z,96590.97
2023-05-05T19:09:26.350Z,96588.84
2023-05-05T19:11:52.669Z,96584.75
2023-05-05T19:14:19.070Z,96591.56
2023-05-05T19:16:45.440Z,96593.22
2023-05-05T19:19:11.812Z,96595.25
2023-05-05T19:21:38.490Z,96591.41
2023-05-05T19:24:06.567Z,96591.94
2023-05-05T19:26:32.891Z,96593.84
2023-05-05T19:28:59.457Z,96598.88
2023-05-05T19:31:27.741Z,96598.56
2023-05-05T19:34:02.219Z,96599.44
2023-05-05T19:36:31.495Z,96601.75
2023-05-05T19:39:01.557Z,96606.88
2023-05-05T19:41:28.828Z,96614.53
2023-05-05T19:43:55.287Z,96614.03
2023-05-05T19:46:22.989Z,96621.38
2023-05-05T19:48:49.373Z,96616.81
2023-05-05T19:51:15.696Z,96619.41
2023-05-05T19:53:42.706Z,96616.66
2023-05-05T19:56:09.739Z,96615.75
2023-05-05T19:58:57.335Z,96623.97
2023-05-05T20:01:23.869Z,96617.28
2023-05-05T20:03:50.951Z,96625.91
2023-05-05T20:06:17.561Z,96626.56
2023-05-05T20:08:43.882Z,96631.41
2023-05-05T20:11:10.305Z,96623.09
2023-05-05T20:13:38.101Z,96630.41
2023-05-05T20:16:05.163Z,96643.16
2023-05-05T20:18:31.973Z,96629.28
2023-05-05T20:21:01.060Z,96628.66
2023-05-05T20:23:27.868Z,96627.41
2023-05-05T20:25:54.988Z,96633.28
2023-05-05T20:28:21.433Z,96635.72
2023-05-05T20:30:47.789Z,96631.16
2023-05-05T20:33:14.125Z,96626.22
2023-05-05T20:35:40.497Z,96637.31
2023-05-05T20:38:06.916Z,96629.72
2023-05-05T20:40:33.615Z,96633.84
2023-05-05T20:43:00.076Z,96640.34
2023-05-05T20:45:26.435Z,96635.75
2023-05-05T20:47:53.102Z,96637.31
2023-05-05T20:50:22.442Z,96642.25
2023-05-05T20:52:49.348Z,96635.56
2023-05-05T20:55:15.738Z,96624.56
2023-05-05T20:57:42.098Z,96629.97
2023-05-05T21:00:09.198Z,96632.44
2023-05-05T21:02:36.330Z,96633.53
2023-05-05T21:05:02.921Z,96627.31
2023-05-05T21:07:31.122Z,96623.75
2023-05-05T21:09:57.489Z,96627.06
2023-05-05T21:12:24.051Z,96620.34
2023-05-05T21:14:50.433Z,96622.00
2023-05-05T21:17:16.786Z,96616.44
2023-05-05T21:19:43.102Z,96612.47
2023-05-05T21:22:09.444Z,96614.66
2023-05-05T21:24:35.801Z,96608.25
2023-05-05T21:27:02.117Z,96614.50
2023-05-05T21:29:28.451Z,96613.31
2023-05-05T21:31:54.887Z,96610.03
2023-05-05T21:34:21.264Z,96606.69
2023-05-05T21:36:47.606Z,96610.38
2023-05-05T21:39:13.944Z,96610.13
2023-05-05T21:41:40.263Z,96612.81
2023-05-05T21:44:06.580Z,96608.59
2023-05-05T21:46:32.984Z,96606.94
2023-05-05T21:48:59.441Z,96604.75
2023-05-05T21:51:26.430Z,96610.06
2023-05-05T21:53:52.805Z,96601.88
2023-05-05T21:56:19.168Z,96600.97
2023-05-05T21:58:45.765Z,96607.94
2023-05-05T22:01:12.166Z,96604.28
2023-05-05T22:03:38.688Z,96601.63
2023-05-05T22:06:05.413Z,96601.78
2023-05-05T22:08:31.778Z,96602.16
2023-05-05T22:10:58.109Z,96593.19
2023-05-05T22:13:24.502Z,96599.13
2023-05-05T22:15:50.890Z,96593.19
2023-05-05T22:18:17.288Z,96599.69
2023-05-05T22:20:43.937Z,96587.03
2023-05-05T22:23:10.306Z,96593.53
2023-05-05T22:25:36.640Z,96576.34
2023-05-05T22:28:03.061Z,96581.09
2023-05-05T22:30:29.469Z,96579.38
2023-05-05T22:32:55.926Z,96579.63
2023-05-05T22:35:22.300Z,96576.44
2023-05-05T22:37:48.881Z,96581.56
2023-05-05T22:40:15.255Z,96582.28
2023-05-05T22:42:41.601Z,96577.50
2023-05-05T22:45:08.839Z,96579.50
2023-05-05T22:47:35.728Z,96577.22
2023-05-05T22:50:02.136Z,96576.69
2023-05-05T22:52:28.927Z,96585.22
2023-05-05T22:54:56.104Z,96587.66
2023-05-05T22:57:22.510Z,96583.19
2023-05-05T22:59:48.962Z,96589.41
2023-05-05T23:02:15.293Z,96578.97
2023-05-05T23:04:45.774Z,96576.16
2023-05-05T23:07:12.375Z,96578.88
2023-05-05T23:09:38.759Z,96578.94
2023-05-05T23:12:05.126Z,96580.28
2023-05-05T23:14:31.435Z,96575.50
2023-05-05T23:16:58.102Z,96582.19
2023-05-05T23:19:24.543Z,96576.88
2023-05-05T23:21:53.546Z,96582.72
2023-05-05T23:24:21.272Z,96579.94
2023-05-05T23:26:47.602Z,96577.91
2023-05-05T23:29:13.950Z,96579.34
2023-05-05T23:31:40.349Z,96578.03
2023-05-05T23:34:06.673Z,96571.44
2023-05-05T23:36:33.126Z,96571.56
2023-05-05T23:38:59.472Z,96569.22
2023-05-05T23:41:25.930Z,96569.75
2023-05-05T23:43:52.284Z,96567.41
2023-05-05T23:46:18.645Z,96568.25
2023-05-05T23:48:45.173Z,96567.91
2023-05-05T23:51:11.741Z,96565.41
2023-05-05T23:53:38.053Z,96564.25
2023-05-05T23:56:04.779Z,96557.66
2023-05-05T23:58:31.150Z,96564.78
